Time;durP1;ratioP1;P1;durP2;ratioP2;P2;SDS_P1;SDS_P2;PMS_P1;PMS_P2;Temp;Humidity;BMP_temperature;BMP_pressure;BME280_temperature;BME280_humidity;BME280_pressure;Samples;Min_cycle;Max_cycle;Signal;HPM_P1;HPM_P2
2022/01/03 00:00:16;;;;;;;7.68;2.42;;;;;;;13.47;59.39;100423.66;686991;28;1155;-82
2022/01/03 00:00:40;;;;;;;6.80;2.50;;;;;;;13.50;59.27;100409.69;683584;28;760;-82
2022/01/03 00:01:01;;;;;;;7.55;2.47;;;;;;;13.52;59.15;100423.72;682776;29;1276;-82
2022/01/03 00:02:00;;;;;;;5.88;2.30;;;;;;;13.59;59.05;100430.78;680165;29;1201;-82
2022/01/03 00:02:25;;;;;;;5.90;2.60;;;;;;;13.53;58.88;100435.94;682174;29;1165;-82
2022/01/03 00:02:47;;;;;;;7.65;2.70;;;;;;;13.56;59.10;100425.47;679992;29;1206;-81
2022/01/03 00:03:11;;;;;;;6.57;2.60;;;;;;;13.56;59.15;100433.34;677149;29;1371;-82
2022/01/03 00:03:31;;;;;;;6.28;2.50;;;;;;;13.52;59.13;100440.31;679817;29;1404;-81
2022/01/03 00:03:52;;;;;;;7.63;2.72;;;;;;;13.55;59.02;100431.59;685209;28;1285;-81
2022/01/03 00:04:14;;;;;;;7.57;2.90;;;;;;;13.44;58.78;100431.47;679940;29;1278;-83
2022/01/03 00:04:36;;;;;;;8.88;3.00;;;;;;;13.43;58.98;100427.09;677442;29;1113;-82
2022/01/03 00:04:56;;;;;;;7.97;3.10;;;;;;;13.31;59.17;100435.72;680044;29;1217;-82
2022/01/03 00:05:32;;;;;;;7.32;3.10;;;;;;;13.41;59.28;100437.56;677288;29;1433;-82
2022/01/03 00:05:53;;;;;;;5.57;2.70;;;;;;;13.45;59.15;100442.84;679637;29;1619;-81
2022/01/03 00:06:15;;;;;;;6.50;2.58;;;;;;;13.43;58.92;100432.34;677175;29;1360;-81
2022/01/03 00:06:36;;;;;;;5.57;2.67;;;;;;;13.43;58.92;100430.63;680172;29;796;-82
2022/01/03 00:06:57;;;;;;;5.32;2.90;;;;;;;13.48;59.26;100437.63;677600;29;1026;-82
2022/01/03 00:07:18;;;;;;;5.60;3.33;;;;;;;13.39;58.97;100446.28;679999;29;1309;-81
2022/01/03 00:07:42;;;;;;;5.65;3.40;;;;;;;13.45;59.25;100440.22;684876;28;1340;-82
2022/01/03 00:08:05;;;;;;;5.35;3.30;;;;;;;13.42;59.09;100420.97;674704;29;1269;-81
2022/01/03 00:08:44;;;;;;;4.95;3.08;;;;;;;13.46;59.31;100435.00;680156;29;1417;-82
2022/01/03 00:09:55;;;;;;;6.75;2.90;;;;;;;13.42;59.38;100446.31;680168;29;1484;-81
2022/01/03 00:10:17;;;;;;;5.88;3.00;;;;;;;13.24;59.58;100426.91;682538;28;1567;-81
2022/01/03 00:10:38;;;;;;;6.03;2.85;;;;;;;13.33;59.43;100427.88;685438;28;1220;-81
2022/01/03 00:10:59;;;;;;;5.60;3.10;;;;;;;13.36;59.15;100431.41;681708;29;1044;-80
2022/01/03 00:11:20;;;;;;;7.35;3.30;;;;;;;13.45;59.13;100448.09;685110;28;1397;-81
2022/01/03 00:11:41;;;;;;;7.15;3.10;;;;;;;13.45;59.21;100432.38;682775;29;1160;-82
2022/01/03 00:12:02;;;;;;;6.40;2.90;;;;;;;13.42;59.10;100443.69;674604;29;1131;-82
2022/01/03 00:12:23;;;;;;;4.75;2.80;;;;;;;13.43;59.03;100430.63;677384;29;1116;-82
2022/01/03 00:12:45;;;;;;;6.18;2.80;;;;;;;13.36;59.21;100428.78;680144;29;1320;-82
2022/01/03 00:13:06;;;;;;;6.38;2.90;;;;;;;13.28;59.07;100436.56;679919;29;1093;-82
2022/01/03 00:13:27;;;;;;;6.60;3.00;;;;;;;13.24;58.87;100447.88;674903;29;1165;-82
2022/01/03 00:13:49;;;;;;;5.85;3.20;;;;;;;13.34;58.97;100438.34;679775;29;1400;-81
2022/01/03 00:14:10;;;;;;;6.50;3.08;;;;;;;13.40;59.21;100435.81;679411;29;1017;-82
2022/01/03 00:14:31;;;;;;;8.27;3.00;;;;;;;13.47;59.07;100423.66;682847;29;1205;-82
2022/01/03 00:14:54;;;;;;;7.63;2.90;;;;;;;13.49;59.05;100434.16;680109;29;1763;-81
2022/01/03 00:15:17;;;;;;;6.20;2.85;;;;;;;13.51;58.67;100448.16;682576;29;1314;-80
2022/01/03 00:15:37;;;;;;;6.53;3.20;;;;;;;13.32;58.50;100447.09;683464;28;1330;-81
2022/01/03 00:15:58;;;;;;;6.30;3.20;;;;;;;13.25;58.89;100452.25;680148;29;1589;-81
2022/01/03 00:16:19;;;;;;;7.05;3.45;;;;;;;13.36;59.19;100438.38;685270;28;1212;-81
2022/01/03 00:16:39;;;;;;;6.63;3.08;;;;;;;13.43;59.05;100440.22;680148;29;1083;-81
2022/01/03 00:17:00;;;;;;;7.70;2.83;;;;;;;13.39;58.79;100444.53;680096;29;1200;-81
2022/01/03 00:17:21;;;;;;;7.50;3.00;;;;;;;13.43;58.61;100446.34;680059;29;1144;-82
2022/01/03 00:17:42;;;;;;;8.23;3.10;;;;;;;13.46;58.73;100447.22;680321;29;799;-82
2022/01/03 00:18:04;;;;;;;7.35;3.10;;;;;;;13.42;58.59;100434.06;676928;29;1333;-82
2022/01/03 00:18:24;;;;;;;8.38;2.95;;;;;;;13.43;58.56;100437.59;680102;29;1237;-83
2022/01/03 00:18:45;;;;;;;6.53;2.85;;;;;;;13.40;58.28;100430.56;677424;29;1548;-81
2022/01/03 00:19:06;;;;;;;6.85;2.90;;;;;;;13.48;58.30;100438.53;677129;29;1179;-82
2022/01/03 00:19:40;;;;;;;4.33;2.73;;;;;;;13.48;58.26;100451.63;679762;29;1399;-82
2022/01/03 00:20:07;;;;;;;4.78;2.90;;;;;;;13.42;58.36;100428.84;682258;29;1575;-81
2022/01/03 00:20:28;;;;;;;5.05;3.08;;;;;;;13.49;58.32;100429.78;682848;29;898;-81
2022/01/03 00:20:59;;;;;;;5.80;3.17;;;;;;;13.48;58.45;100437.63;682778;28;1209;-81
2022/01/03 00:21:25;;;;;;;8.05;3.63;;;;;;;13.47;58.32;100451.59;682653;28;1001;-81
2022/01/03 00:21:48;;;;;;;7.30;3.90;;;;;;;13.38;58.88;100452.38;682841;28;834;-81
2022/01/03 00:22:13;;;;;;;8.93;3.90;;;;;;;13.49;58.51;100434.16;678828;28;1648;-80
2022/01/03 00:22:48;;;;;;;9.30;3.85;;;;;;;13.40;58.26;100459.41;678084;29;1963;-81
2022/01/03 00:23:09;;;;;;;8.88;3.80;;;;;;;13.47;58.28;100446.38;678182;29;1157;-81
2022/01/03 00:23:35;;;;;;;8.27;3.60;;;;;;;13.38;58.49;100447.13;677525;29;1286;-81
2022/01/03 00:24:27;;;;;;;5.72;3.50;;;;;;;13.34;58.38;100454.06;680133;29;1344;-81
2022/01/03 00:25:06;;;;;;;6.35;3.00;;;;;;;13.34;58.28;100429.63;682428;28;1242;-82
2022/01/03 00:25:28;;;;;;;7.80;3.40;;;;;;;13.47;58.47;100446.38;680050;28;1237;-82
2022/01/03 00:25:53;;;;;;;8.80;3.30;;;;;;;13.39;58.20;100427.94;682809;29;764;-82
2022/01/03 00:26:22;;;;;;;6.72;3.08;;;;;;;13.40;58.39;100453.28;679499;29;1374;-82
2022/01/03 00:26:49;;;;;;;9.20;3.53;;;;;;;13.37;58.48;100451.50;682926;28;1111;-82
2022/01/03 00:27:15;;;;;;;10.40;3.58;;;;;;;13.33;58.14;100467.19;679898;29;1381;-82
2022/01/03 00:28:09;;;;;;;8.40;3.10;;;;;;;13.26;58.56;100458.34;680008;29;1050;-82
2022/01/03 00:28:34;;;;;;;8.48;3.33;;;;;;;13.14;58.86;100431.16;685439;28;859;-81
2022/01/03 00:28:59;;;;;;;8.43;3.40;;;;;;;13.24;58.73;100460.09;682728;29;1129;-82
2022/01/03 00:29:25;;;;;;;9.32;3.58;;;;;;;13.01;58.70;100442.34;676930;29;1120;-81
2022/01/03 00:29:50;;;;;;;11.05;3.50;;;;;;;13.02;58.69;100428.38;682724;29;1349;-81
2022/01/03 00:30:50;;;;;;;12.20;3.63;;;;;;;13.03;58.85;100445.84;678539;29;1483;-81
2022/01/03 00:31:12;;;;;;;7.93;3.10;;;;;;;13.09;58.67;100452.94;677373;28;1572;-82
2022/01/03 00:31:36;;;;;;;7.80;3.22;;;;;;;13.12;58.71;100439.84;687999;28;1035;-82
2022/01/03 00:31:57;;;;;;;6.45;3.20;;;;;;;13.17;58.30;100438.19;684892;28;1583;-81
2022/01/03 00:32:20;;;;;;;6.07;3.05;;;;;;;13.12;58.32;100435.50;682660;28;1104;-82
2022/01/03 00:32:43;;;;;;;6.07;2.92;;;;;;;13.25;58.03;100453.97;680044;29;1103;-82
2022/01/03 00:33:05;;;;;;;8.48;3.00;;;;;;;13.27;58.01;100439.19;682388;29;1119;-81
2022/01/03 00:33:26;;;;;;;8.55;3.10;;;;;;;13.25;58.08;100446.13;685471;28;1339;-81
2022/01/03 00:33:51;;;;;;;7.55;3.10;;;;;;;13.21;57.89;100450.44;685368;28;847;-81
2022/01/03 00:34:13;;;;;;;6.03;3.00;;;;;;;13.23;58.08;100437.38;674668;29;1197;-81
2022/01/03 00:34:35;;;;;;;5.90;3.10;;;;;;;13.15;58.16;100435.53;677489;29;1246;-82
2022/01/03 00:34:57;;;;;;;8.43;2.90;;;;;;;13.23;58.08;100458.31;679995;29;1256;-81
2022/01/03 00:35:20;;;;;;;8.20;3.13;;;;;;;13.14;57.80;100438.13;679588;29;1327;-82
2022/01/03 00:35:41;;;;;;;6.65;3.30;;;;;;;13.20;58.06;100445.19;677284;29;1260;-81
2022/01/03 00:36:04;;;;;;;7.78;3.47;;;;;;;13.25;58.06;100451.34;674811;29;1045;-82
2022/01/03 00:36:28;;;;;;;8.75;3.80;;;;;;;13.14;57.84;100449.50;676983;29;1601;-81
2022/01/03 00:36:51;;;;;;;6.70;3.40;;;;;;;13.21;57.83;100447.81;677458;29;1246;-81
2022/01/03 00:37:12;;;;;;;4.90;3.30;;;;;;;13.35;57.54;100448.00;678551;29;1133;-83
2022/01/03 00:37:35;;;;;;;7.05;3.45;;;;;;;13.41;57.64;100452.44;677510;29;1186;-81
2022/01/03 00:37:59;;;;;;;9.18;3.47;;;;;;;13.36;57.42;100444.50;679989;29;1380;-82
2022/01/03 00:38:21;;;;;;;8.77;3.10;;;;;;;13.29;57.39;100443.53;679903;29;1247;-82
2022/01/03 00:38:42;;;;;;;8.45;3.28;;;;;;;13.37;57.42;100454.13;677754;29;847;-81
2022/01/03 00:39:08;;;;;;;9.18;3.63;;;;;;;13.34;57.62;100467.19;679603;29;1534;-81
2022/01/03 00:39:31;;;;;;;10.15;3.78;;;;;;;13.28;57.37;100464.50;682352;29;835;-82
2022/01/03 00:39:53;;;;;;;9.30;3.60;;;;;;;13.29;57.36;100454.03;685203;28;1682;-82
2022/01/03 00:40:17;;;;;;;5.10;3.40;;;;;;;13.16;57.66;100447.75;679982;29;1088;-82
2022/01/03 00:40:39;;;;;;;4.80;3.03;;;;;;;13.24;57.61;100452.22;677472;29;1364;-82
2022/01/03 00:41:00;;;;;;;5.63;3.05;;;;;;;13.33;57.67;100454.09;680071;29;1014;-82
2022/01/03 00:41:22;;;;;;;3.72;2.83;;;;;;;13.36;57.37;100469.84;682465;28;1238;-81
2022/01/03 00:41:46;;;;;;;5.57;3.20;;;;;;;13.28;57.53;100440.94;683676;28;1440;-81
2022/01/03 00:42:06;;;;;;;7.55;3.47;;;;;;;13.32;56.94;100457.56;674538;29;1381;-81
2022/01/03 00:43:07;;;;;;;9.20;3.58;;;;;;;13.42;57.26;100465.53;677433;29;1897;-82
2022/01/03 00:43:29;;;;;;;9.73;3.10;;;;;;;13.50;56.96;100468.25;677519;29;1262;-81
2022/01/03 00:43:55;;;;;;;8.07;2.85;;;;;;;13.51;56.80;100448.16;677463;29;1274;-81
2022/01/03 00:44:16;;;;;;;7.03;3.20;;;;;;;13.43;57.26;100443.72;681606;29;1214;-82
2022/01/03 00:44:36;;;;;;;7.15;3.25;;;;;;;13.47;57.00;100454.22;682891;29;843;-82
2022/01/03 00:44:59;;;;;;;7.13;3.30;;;;;;;13.50;57.14;100446.38;684976;28;1679;-82
2022/01/03 00:45:20;;;;;;;7.50;3.03;;;;;;;13.51;56.95;100459.53;679935;29;1061;-81
2022/01/03 00:45:51;;;;;;;8.27;3.50;;;;;;;13.57;56.96;100469.19;682698;29;777;-82
2022/01/03 00:46:11;;;;;;;8.50;3.65;;;;;;;13.40;57.34;100445.44;682526;29;1115;-82
2022/01/03 00:46:33;;;;;;;8.07;3.42;;;;;;;13.35;57.28;100452.34;679107;29;1208;-82
2022/01/03 00:46:55;;;;;;;8.15;3.17;;;;;;;13.48;56.96;100469.09;677340;29;1130;-81
2022/01/03 00:47:16;;;;;;;8.07;3.85;;;;;;;13.50;57.29;100472.59;682400;29;1288;-83
2022/01/03 00:47:38;;;;;;;8.35;4.00;;;;;;;13.53;57.26;100478.75;682829;29;1034;-81
2022/01/03 00:47:59;;;;;;;6.72;3.67;;;;;;;13.38;56.27;100455.88;680477;29;1235;-81
2022/01/03 00:48:20;;;;;;;6.43;3.30;;;;;;;13.48;56.44;100492.69;679961;29;1125;-82
2022/01/03 00:48:41;;;;;;;5.18;3.10;;;;;;;13.43;56.57;100462.06;682730;29;1215;-83
2022/01/03 00:49:06;;;;;;;6.40;3.22;;;;;;;13.48;56.61;100458.59;682486;29;1099;-81
2022/01/03 00:49:27;;;;;;;6.50;3.60;;;;;;;13.56;56.79;100455.22;682214;28;1395;-82
2022/01/03 00:49:47;;;;;;;7.20;3.80;;;;;;;13.55;56.51;100473.53;677147;29;1248;-81
2022/01/03 00:50:10;;;;;;;4.83;3.30;;;;;;;13.61;56.23;100452.63;682555;29;1084;-82
2022/01/03 00:50:31;;;;;;;6.80;2.92;;;;;;;13.67;56.33;100454.44;680121;29;1306;-83
2022/01/03 00:50:52;;;;;;;6.55;3.05;;;;;;;13.64;56.12;100464.91;677498;29;1413;-82
2022/01/03 00:51:19;;;;;;;8.00;3.30;;;;;;;13.53;56.31;100463.03;685759;28;1196;-82
2022/01/03 00:51:40;;;;;;;7.15;3.42;;;;;;;13.68;56.41;100482.41;685311;28;780;-81
2022/01/03 00:52:00;;;;;;;6.68;3.50;;;;;;;13.32;56.88;100457.56;685407;28;968;-81
2022/01/03 00:52:21;;;;;;;8.30;3.42;;;;;;;13.41;56.54;100457.66;680094;29;1159;-82
2022/01/03 00:52:42;;;;;;;9.10;3.10;;;;;;;13.36;56.58;100467.22;685225;28;1683;-82
2022/01/03 00:53:04;;;;;;;8.65;3.00;;;;;;;13.34;56.73;100454.06;676699;29;1393;-81
2022/01/03 00:53:25;;;;;;;6.15;3.10;;;;;;;13.54;56.64;100466.53;679990;29;1312;-82
2022/01/03 00:53:53;;;;;;;5.43;3.30;;;;;;;13.58;56.21;100476.19;680112;29;753;-82
2022/01/03 00:54:14;;;;;;;6.88;3.40;;;;;;;13.63;56.44;100464.00;685183;28;1112;-82
2022/01/03 00:54:34;;;;;;;7.25;3.70;;;;;;;13.66;56.38;100464.03;684145;28;1370;-82
2022/01/03 00:54:55;;;;;;;6.70;3.40;;;;;;;13.66;56.45;100458.78;682647;28;1111;-81
2022/01/03 00:55:17;;;;;;;6.13;3.28;;;;;;;13.67;56.24;100460.56;687030;28;1199;-82
2022/01/03 00:55:51;;;;;;;4.80;3.20;;;;;;;13.63;56.57;100452.66;679878;29;1240;-81
2022/01/03 00:56:13;;;;;;;9.38;3.30;;;;;;;13.74;56.61;100479.84;682464;28;1504;-81
2022/01/03 00:56:36;;;;;;;11.05;3.20;;;;;;;13.73;56.30;100469.34;677453;29;1128;-82
2022/01/03 00:57:04;;;;;;;10.30;3.40;;;;;;;13.64;56.35;100450.03;679917;29;1311;-82
2022/01/03 00:57:52;;;;;;;6.03;3.40;;;;;;;13.63;56.27;100471.88;677451;29;1359;-82
2022/01/03 00:58:19;;;;;;;7.78;3.60;;;;;;;13.52;56.59;100465.66;679474;29;1052;-82
2022/01/03 00:59:10;;;;;;;8.68;3.78;;;;;;;13.53;56.86;100470.03;679933;29;1109;-81
2022/01/03 00:59:36;;;;;;;8.25;2.92;;;;;;;13.36;57.20;100455.00;677926;29;1056;-82
2022/01/03 01:00:04;;;;;;;7.32;3.20;;;;;;;13.45;57.19;100476.94;679982;29;1052;-83
2022/01/03 01:00:27;;;;;;;8.57;3.20;;;;;;;13.40;57.04;100459.41;677310;29;1361;-81
2022/01/03 01:00:53;;;;;;;11.00;3.60;;;;;;;13.40;57.21;100463.78;674850;29;1410;-81
2022/01/03 01:01:17;;;;;;;9.35;3.30;;;;;;;13.45;57.30;100474.31;678750;29;1235;-82
2022/01/03 01:01:44;;;;;;;7.43;3.13;;;;;;;13.42;57.25;100465.53;679870;29;1279;-82
2022/01/03 01:02:08;;;;;;;4.85;2.70;;;;;;;13.45;57.06;100471.69;679751;29;1282;-82
2022/01/03 01:02:35;;;;;;;4.93;2.80;;;;;;;13.48;57.41;100462.13;677452;29;1912;-82
2022/01/03 01:03:04;;;;;;;5.32;3.13;;;;;;;13.40;57.11;100461.16;679630;29;1020;-81
2022/01/03 01:03:34;;;;;;;4.68;3.00;;;;;;;13.37;57.10;100451.50;682576;29;1179;-82
2022/01/03 01:03:56;;;;;;;8.00;3.20;;;;;;;13.36;57.45;100460.25;679761;29;1032;-81
2022/01/03 01:04:19;;;;;;;9.57;3.50;;;;;;;13.35;57.13;100455.88;679023;29;1291;-82
2022/01/03 01:04:45;;;;;;;5.97;3.30;;;;;;;13.36;57.23;100459.34;682621;29;1385;-82
2022/01/03 01:05:06;;;;;;;8.63;3.50;;;;;;;13.35;57.20;100454.97;680065;29;1255;-81
2022/01/03 01:05:28;;;;;;;9.63;3.47;;;;;;;13.34;57.37;100467.19;682792;29;843;-82
2022/01/03 01:05:50;;;;;;;10.85;3.80;;;;;;;13.38;57.19;100469.00;680010;29;886;-82
2022/01/03 01:06:11;;;;;;;7.13;3.40;;;;;;;13.26;57.33;100459.25;680769;29;1372;-81
2022/01/03 01:06:34;;;;;;;7.07;3.23;;;;;;;13.30;57.43;100463.63;678960;29;1200;-82
2022/01/03 01:06:57;;;;;;;7.10;2.97;;;;;;;13.37;57.24;100461.09;679858;28;1252;-82
2022/01/03 01:07:18;;;;;;;8.50;3.15;;;;;;;13.43;57.24;100469.94;679337;29;1205;-81
2022/01/03 01:07:39;;;;;;;6.38;3.08;;;;;;;13.36;57.18;100459.34;677134;29;1312;-81
2022/01/03 01:08:01;;;;;;;8.02;3.30;;;;;;;13.46;57.17;100476.06;676290;29;1296;-81
2022/01/03 01:08:23;;;;;;;7.50;3.60;;;;;;;13.40;57.00;100455.91;679957;29;1138;-82
2022/01/03 01:08:45;;;;;;;7.68;3.50;;;;;;;13.40;57.06;100467.25;680065;29;848;-83
2022/01/03 01:09:07;;;;;;;8.13;3.58;;;;;;;13.40;57.27;100466.41;682419;29;1107;-82
2022/01/03 01:09:28;;;;;;;8.88;3.55;;;;;;;13.38;57.43;100457.63;676772;29;1275;-82
2022/01/03 01:09:51;;;;;;;9.32;3.60;;;;;;;13.43;57.32;100471.66;681064;29;1328;-81
2022/01/03 01:10:22;;;;;;;9.88;3.58;;;;;;;13.30;56.78;100479.38;680837;29;1195;-83
2022/01/03 01:10:42;;;;;;;9.85;3.40;;;;;;;13.36;57.11;100478.59;679328;29;1040;-82
2022/01/03 01:11:07;;;;;;;8.63;3.33;;;;;;;13.42;57.31;100486.50;685011;28;1133;-82
2022/01/03 01:11:30;;;;;;;8.65;3.90;;;;;;;13.46;57.38;100481.31;680007;29;1123;-82
2022/01/03 01:11:54;;;;;;;9.07;3.95;;;;;;;13.45;57.31;100474.31;679942;29;1254;-81
2022/01/03 01:12:15;;;;;;;9.18;4.22;;;;;;;13.36;57.30;100481.22;678816;29;1179;-82
2022/01/03 01:12:36;;;;;;;11.15;4.20;;;;;;;13.38;57.07;100469.00;682557;28;1221;-81
2022/01/03 01:12:57;;;;;;;9.68;4.30;;;;;;;13.38;57.40;100479.47;679702;29;1352;-81
2022/01/03 01:13:21;;;;;;;11.50;4.18;;;;;;;13.46;57.47;100476.06;682587;28;1057;-83
2022/01/03 01:13:44;;;;;;;8.82;3.42;;;;;;;13.38;57.21;100474.22;680027;29;1150;-81
2022/01/03 01:14:06;;;;;;;9.75;3.20;;;;;;;13.38;57.09;100470.72;682824;28;1242;-82
2022/01/03 01:14:28;;;;;;;8.20;3.00;;;;;;;13.44;57.29;100483.91;680051;29;1163;-82
2022/01/03 01:14:50;;;;;;;7.57;3.05;;;;;;;13.39;56.99;100468.13;679949;29;1238;-83
2022/01/03 01:15:11;;;;;;;9.32;2.97;;;;;;;13.37;57.30;100480.34;682353;29;1337;-83
2022/01/03 01:15:34;;;;;;;9.77;3.00;;;;;;;13.47;57.20;100488.31;679991;29;1136;-81
2022/01/03 01:15:54;;;;;;;7.57;3.13;;;;;;;13.35;56.85;100471.59;674702;29;1346;-82
2022/01/03 01:16:16;;;;;;;9.13;3.40;;;;;;;13.33;57.08;100480.28;676302;29;1451;-82
2022/01/03 01:16:41;;;;;;;9.60;3.45;;;;;;;13.32;57.23;100461.06;685355;28;799;-83
2022/01/03 01:17:02;;;;;;;6.07;3.10;;;;;;;13.27;56.94;100463.63;679830;29;1351;-82
2022/01/03 01:17:26;;;;;;;7.57;3.05;;;;;;;13.38;57.26;100476.84;679269;29;788;-83
2022/01/03 01:17:48;;;;;;;9.70;3.10;;;;;;;13.31;57.27;100472.41;674485;29;1228;-81
2022/01/03 01:18:09;;;;;;;9.82;3.22;;;;;;;13.39;57.04;100475.13;677766;29;1270;-82
2022/01/03 01:18:31;;;;;;;8.00;3.60;;;;;;;13.38;56.95;100474.22;680103;29;777;-81
2022/01/03 01:18:53;;;;;;;9.05;3.80;;;;;;;13.49;56.94;100487.47;680135;29;1331;-83
2022/01/03 01:19:17;;;;;;;9.20;3.75;;;;;;;13.43;56.90;100475.19;684500;28;1496;-81
2022/01/03 01:19:38;;;;;;;7.85;3.38;;;;;;;13.41;57.07;100474.25;687753;28;1230;-81
2022/01/03 01:20:04;;;;;;;9.02;3.50;;;;;;;13.42;57.44;100486.50;677374;29;1181;-82
2022/01/03 01:20:26;;;;;;;11.05;3.80;;;;;;;13.35;56.95;100478.56;672426;29;1327;-82
2022/01/03 01:20:49;;;;;;;9.57;3.60;;;;;;;13.45;57.05;100475.16;677414;29;828;-83
2022/01/03 01:21:11;;;;;;;8.52;3.40;;;;;;;13.34;57.20;100467.19;682484;29;1258;-81
2022/01/03 01:21:33;;;;;;;6.90;3.10;;;;;;;13.30;57.20;100473.25;685108;28;1295;-82
2022/01/03 01:21:54;;;;;;;6.80;3.10;;;;;;;13.37;57.36;100489.94;677305;29;1086;-82
2022/01/03 01:22:15;;;;;;;5.55;2.92;;;;;;;13.34;56.94;100485.53;679889;29;1221;-82
2022/01/03 01:22:51;;;;;;;5.53;2.83;;;;;;;13.33;57.27;100489.00;676974;29;1972;-82
2022/01/03 01:23:14;;;;;;;6.57;3.05;;;;;;;13.39;57.11;100496.97;678367;29;1509;-82
2022/01/03 01:23:37;;;;;;;9.10;3.33;;;;;;;13.36;57.32;100480.31;677288;29;1360;-81
2022/01/03 01:23:58;;;;;;;10.65;3.40;;;;;;;13.46;57.21;100503.13;679855;29;1219;-81
2022/01/03 01:24:22;;;;;;;9.45;3.10;;;;;;;13.39;57.07;100498.72;677078;29;1234;-82
2022/01/03 01:24:50;;;;;;;7.82;2.83;;;;;;;13.38;57.18;100500.44;679897;29;1561;-81
2022/01/03 01:27:53;;;;;;;10.35;3.10;;;;;;;13.35;56.85;100486.41;680002;29;1603;-82
2022/01/03 01:28:16;;;;;;;10.98;3.38;;;;;;;13.24;56.58;100494.16;685225;28;1179;-81
2022/01/03 01:28:37;;;;;;;10.45;3.22;;;;;;;13.35;56.78;100505.66;681313;29;1430;-82
2022/01/03 01:28:57;;;;;;;8.35;2.97;;;;;;;13.29;56.90;100485.47;674671;29;1181;-82
2022/01/03 01:29:18;;;;;;;5.00;2.70;;;;;;;13.37;56.51;100497.78;672322;29;1273;-81
2022/01/03 01:29:39;;;;;;;3.38;2.90;;;;;;;13.32;56.65;100492.50;682506;29;1261;-83
2022/01/03 01:30:02;;;;;;;5.03;3.00;;;;;;;13.33;56.81;100486.38;685150;28;1262;-82
2022/01/03 01:30:26;;;;;;;6.47;3.28;;;;;;;13.31;56.88;100488.13;682155;29;1257;-82
2022/01/03 01:30:53;;;;;;;10.98;3.53;;;;;;;13.39;56.81;100496.97;682540;29;919;-82
2022/01/03 01:31:18;;;;;;;13.30;3.90;;;;;;;13.25;56.84;100482.81;679811;29;1163;-81
2022/01/03 01:31:48;;;;;;;12.77;3.80;;;;;;;13.20;56.76;100511.56;682439;29;1202;-83
2022/01/03 01:32:27;;;;;;;9.70;3.67;;;;;;;13.33;56.82;100502.13;681028;28;1223;-82
2022/01/03 01:32:52;;;;;;;10.27;4.15;;;;;;;13.34;56.44;100488.16;685059;28;1778;-81
2022/01/03 01:33:16;;;;;;;10.10;4.03;;;;;;;13.36;56.43;100509.13;682298;29;1056;-82
2022/01/03 01:33:42;;;;;;;8.93;3.42;;;;;;;13.34;56.43;100498.63;679921;29;1360;-82
2022/01/03 01:34:05;;;;;;;7.90;3.30;;;;;;;13.36;56.79;100510.03;679634;29;1545;-82
2022/01/03 01:34:29;;;;;;;8.90;3.30;;;;;;;13.40;56.72;100505.72;685296;28;895;-82
2022/01/03 01:34:52;;;;;;;10.82;3.40;;;;;;;13.42;56.43;100502.22;682519;28;1289;-81
2022/01/03 01:35:16;;;;;;;8.25;3.00;;;;;;;13.33;56.71;100504.75;684460;28;1281;-81
2022/01/03 01:35:53;;;;;;;8.05;3.30;;;;;;;13.41;56.81;100495.22;679976;29;787;-82
2022/01/03 01:36:17;;;;;;;9.90;3.70;;;;;;;13.23;56.73;100487.16;676229;29;1092;-82
2022/01/03 01:36:45;;;;;;;9.60;3.40;;;;;;;13.30;56.78;100494.22;679617;29;832;-82
2022/01/03 01:37:07;;;;;;;9.60;3.15;;;;;;;13.31;56.80;100498.59;679550;28;1164;-82
2022/01/03 01:37:32;;;;;;;9.70;3.13;;;;;;;13.37;56.77;100503.94;677312;29;1360;-82
2022/01/03 01:37:55;;;;;;;9.98;3.05;;;;;;;13.30;56.51;100496.84;677391;29;847;-83
2022/01/03 01:38:54;;;;;;;11.52;3.30;;;;;;;13.44;56.40;100523.22;675922;29;1285;-81
2022/01/03 01:39:27;;;;;;;11.30;3.10;;;;;;;13.28;56.40;100481.09;678329;29;1215;-82
2022/01/03 01:39:51;;;;;;;10.18;3.30;;;;;;;13.30;56.38;100494.22;676891;29;1299;-82
2022/01/03 01:40:13;;;;;;;8.25;3.33;;;;;;;13.29;56.54;100500.34;676038;29;1383;-82
2022/01/03 01:40:43;;;;;;;8.27;3.25;;;;;;;13.27;56.28;100502.94;680057;29;1181;-82
2022/01/03 01:41:07;;;;;;;8.95;3.60;;;;;;;13.35;56.05;100489.94;681607;28;1236;-82
2022/01/03 01:41:34;;;;;;;7.70;3.53;;;;;;;13.41;56.24;100500.47;674713;29;1313;-81
2022/01/03 01:42:04;;;;;;;10.38;3.78;;;;;;;13.49;56.26;100507.53;674746;29;1071;-82
2022/01/03 01:42:30;;;;;;;9.68;3.63;;;;;;;13.45;55.94;100511.88;677336;29;2348;-82
2022/01/03 01:42:53;;;;;;;8.43;3.08;;;;;;;13.44;55.82;100494.38;680099;29;777;-82
2022/01/03 01:43:19;;;;;;;9.40;3.20;;;;;;;13.45;56.21;100506.63;679611;29;1398;-82
2022/01/03 01:43:45;;;;;;;11.52;3.50;;;;;;;13.36;56.22;100498.66;677242;29;1362;-82
2022/01/03 01:44:10;;;;;;;12.98;3.40;;;;;;;13.35;56.19;100496.91;678650;29;1266;-82
2022/01/03 01:44:35;;;;;;;11.68;3.53;;;;;;;13.34;56.38;100498.63;680007;29;1369;-82
2022/01/03 01:44:59;;;;;;;8.98;3.50;;;;;;;13.41;56.27;100489.97;677752;29;1269;-82
2022/01/03 01:45:25;;;;;;;9.30;3.38;;;;;;;13.45;55.91;100505.75;677304;29;1219;-82
2022/01/03 01:45:48;;;;;;;12.27;3.90;;;;;;;13.39;56.53;100506.56;679805;29;1422;-82
2022/01/03 01:46:16;;;;;;;13.25;4.30;;;;;;;13.38;56.16;100499.56;676784;29;1407;-83
2022/01/03 01:46:49;;;;;;;8.27;3.95;;;;;;;13.48;56.35;100500.53;674504;29;1278;-82
2022/01/03 01:47:10;;;;;;;8.88;3.90;;;;;;;13.41;56.51;100499.59;677049;29;1288;-82
2022/01/03 01:47:34;;;;;;;11.05;4.05;;;;;;;13.47;56.29;100498.78;679748;29;1539;-82
2022/01/03 01:47:59;;;;;;;10.88;4.10;;;;;;;13.49;56.39;100507.53;682555;28;1284;-82
2022/01/03 01:48:23;;;;;;;8.30;3.80;;;;;;;13.39;56.65;100515.31;682423;28;1130;-82
2022/01/03 01:48:48;;;;;;;9.70;3.70;;;;;;;13.45;56.56;100501.38;685253;28;897;-82
2022/01/03 01:49:16;;;;;;;11.95;4.00;;;;;;;13.43;56.26;100496.16;680038;28;1286;-82
2022/01/03 01:49:44;;;;;;;18.27;4.90;;;;;;;13.42;56.61;100511.84;680090;29;1106;-82
2022/01/03 01:50:07;;;;;;;16.15;5.05;;;;;;;13.38;56.91;100516.16;682307;28;1171;-81
2022/01/03 01:50:29;;;;;;;16.50;5.32;;;;;;;13.45;56.54;100508.38;679851;29;1417;-82
2022/01/03 01:50:52;;;;;;;16.60;5.18;;;;;;;13.35;56.53;100484.69;677183;29;1494;-82
2022/01/03 01:51:15;;;;;;;13.80;4.82;;;;;;;13.34;56.85;100488.16;680862;29;1593;-83
2022/01/03 01:51:38;;;;;;;11.55;4.40;;;;;;;13.35;56.71;100513.53;679868;29;1133;-82
2022/01/03 01:52:03;;;;;;;12.13;4.38;;;;;;;13.28;56.92;100502.06;677311;29;1275;-81
2022/01/03 01:52:36;;;;;;;12.32;4.00;;;;;;;13.40;56.86;100513.56;672196;29;792;-82
2022/01/03 01:52:56;;;;;;;10.18;3.95;;;;;;;13.30;56.64;100504.72;679071;29;1490;-81
2022/01/03 01:53:23;;;;;;;10.35;4.20;;;;;;;13.38;57.05;100515.28;682178;29;1349;-82
2022/01/03 01:53:51;;;;;;;14.07;5.00;;;;;;;13.28;57.17;100503.81;677246;29;815;-81
2022/01/03 01:54:17;;;;;;;13.93;5.05;;;;;;;13.31;57.01;100498.59;682387;29;1215;-82
2022/01/03 01:54:38;;;;;;;11.05;3.90;;;;;;;13.29;57.13;100502.97;687538;28;1436;-83
2022/01/03 01:55:11;;;;;;;13.13;3.88;;;;;;;13.37;56.93;100514.41;679703;29;1219;-82
2022/01/03 01:55:45;;;;;;;15.95;4.50;;;;;;;13.35;57.07;100502.16;679730;29;1286;-83
2022/01/03 01:56:14;;;;;;;15.30;4.70;;;;;;;13.34;57.21;100493.38;680095;29;1478;-82
2022/01/03 01:56:58;;;;;;;12.10;4.25;;;;;;;13.41;57.34;100508.34;685172;28;1269;-81
2022/01/03 01:57:38;;;;;;;11.40;4.20;;;;;;;13.35;57.34;100497.78;682479;29;1150;-82
2022/01/03 01:58:23;;;;;;;6.70;4.25;;;;;;;13.36;57.39;100517.91;682225;29;1164;-82
2022/01/03 01:59:21;;;;;;;9.18;4.85;;;;;;;13.33;57.32;100523.09;682550;29;859;-82
2022/01/03 02:00:01;;;;;;;12.57;4.50;;;;;;;13.33;57.61;100514.34;679003;29;1165;-82
2022/01/03 02:00:25;;;;;;;14.68;4.35;;;;;;;13.27;57.66;100510.78;680251;29;1393;-81
2022/01/03 02:01:07;;;;;;;12.82;5.10;;;;;;;13.33;57.61;100509.97;683596;28;973;-82
2022/01/03 02:01:43;;;;;;;10.40;4.78;;;;;;;13.26;57.98;100518.63;685172;28;1275;-82
2022/01/03 02:02:06;;;;;;;9.95;4.40;;;;;;;13.27;57.68;100502.06;682503;28;1561;-82
2022/01/03 02:02:35;;;;;;;13.38;4.90;;;;;;;13.33;57.76;100520.47;679768;29;1984;-81
2022/01/03 02:03:13;;;;;;;14.95;4.88;;;;;;;13.28;57.51;100506.44;679756;29;1955;-82
2022/01/03 02:03:57;;;;;;;12.25;4.63;;;;;;;13.29;57.71;100523.91;680028;29;768;-82